Startpagina
METAR-TAF:

METAR-TAF

Vliegvelden :

Chandigarh, India

breedte: 30-40-29N, lengte: 76-47-26E, hoogte: 314 m

Actueel weer

Dit bericht is 5 uur en het 15 minuten geleden gemaakt, om 12:30 UTC
Wind 6 kt uit het noordnoordwesten
Temperatuur 20°C
Vochtigheid 46%
Druk 1012 hPa
Zicht: 6000 m
Weinig wolken op 25000 ft

METAR: VICG 161230Z 34006KT 6000 FEW250 20/08 Q1012 NOSIG

Tijdstip: 23:15 (17:45 UTC)


TAF: ontbreekt

Waarnemingen en weersverwachtingen van meer dan 4000 vliegvelden (METAR en TAF).

De beschikbare stations zijn de gele en rode punten op de kaart.

Ga met uw muis naar het station om de naam te zien.

Klik dan om waarnemingen en weersverwachtingen te zien.

kaart wijzigen: klik op de groene knoppen met een zwart kruis om in te zoomen, op de groene knop met een streepje om uit te zoomen of op de groene pijlen voor aangrenzende kaarten.


METAR-TAF: